createdAt,value
2023-01-12T00:01:39.393Z,7.22
2023-01-12T00:04:06.405Z,7.28
2023-01-12T00:06:33.737Z,7.33
2023-01-12T00:09:03.230Z,7.30
2023-01-12T00:11:30.332Z,7.30
2023-01-12T00:13:57.788Z,7.34
2023-01-12T00:16:43.592Z,7.35
2023-01-12T00:19:12.712Z,7.33
2023-01-12T00:21:58.767Z,7.37
2023-01-12T00:24:37.074Z,7.47
2023-01-12T00:27:07.154Z,7.39
2023-01-12T00:29:34.360Z,7.40
2023-01-12T00:32:01.043Z,7.42
2023-01-12T00:34:29.566Z,7.44
2023-01-12T00:36:56.793Z,7.38
2023-01-12T00:39:23.187Z,7.36
2023-01-12T00:42:07.944Z,7.36
2023-01-12T00:44:52.714Z,7.42
2023-01-12T00:47:19.661Z,7.40
2023-01-12T00:49:46.183Z,7.44
2023-01-12T00:52:24.971Z,7.42
2023-01-12T00:54:56.127Z,7.41
2023-01-12T00:57:22.473Z,7.42
2023-01-12T00:59:48.792Z,7.45
2023-01-12T01:02:15.255Z,7.48
2023-01-12T01:07:32.158Z,7.48
2023-01-12T01:09:58.450Z,7.55
2023-01-12T01:12:24.752Z,7.57
2023-01-12T01:14:53.373Z,7.57
2023-01-12T01:17:19.708Z,7.51
2023-01-12T01:19:48.241Z,7.56
2023-01-12T01:22:15.133Z,7.59
2023-01-12T01:24:41.765Z,7.59
2023-01-12T01:27:08.080Z,7.74
2023-01-12T01:29:34.402Z,7.69
2023-01-12T01:32:00.726Z,7.76
2023-01-12T01:34:27.094Z,7.77
2023-01-12T01:36:53.404Z,7.83
2023-01-12T01:39:19.747Z,7.85
2023-01-12T01:41:47.951Z,7.91
2023-01-12T01:44:29.629Z,7.96
2023-01-12T01:47:08.263Z,7.95
2023-01-12T01:49:48.472Z,7.98
2023-01-12T01:52:19.277Z,8.08
2023-01-12T01:55:08.604Z,8.07
2023-01-12T01:58:15.558Z,8.09
2023-01-12T02:00:43.511Z,8.08
2023-01-12T02:03:11.426Z,8.11
2023-01-12T02:05:41.713Z,8.12
2023-01-12T02:08:17.867Z,8.10
2023-01-12T02:10:45.301Z,8.17
2023-01-12T02:13:30.147Z,8.09
2023-01-12T02:16:22.806Z,8.05
2023-01-12T02:18:57.757Z,8.07
2023-01-12T02:21:47.333Z,8.09
2023-01-12T02:24:27.723Z,8.11
2023-01-12T02:27:32.395Z,8.08
2023-01-12T02:30:43.024Z,8.13
2023-01-12T02:33:23.990Z,8.16
2023-01-12T02:36:11.193Z,8.16
2023-01-12T02:38:53.352Z,8.20
2023-01-12T02:42:02.129Z,8.14
2023-01-12T02:44:55.307Z,8.18
2023-01-12T02:47:56.992Z,8.14
2023-01-12T02:50:35.297Z,8.17
2023-01-12T02:53:07.833Z,8.16
2023-01-12T02:55:34.998Z,8.13
2023-01-12T02:58:03.609Z,8.12
2023-01-12T03:00:30.482Z,8.14
2023-01-12T03:02:56.915Z,8.20
2023-01-12T03:05:23.278Z,8.16
2023-01-12T03:07:58.812Z,8.17
2023-01-12T03:10:34.173Z,8.18
2023-01-12T03:13:06.267Z,8.08
2023-01-12T03:15:35.080Z,8.13
2023-01-12T03:18:13.916Z,8.26
2023-01-12T03:20:54.048Z,8.25
2023-01-12T03:23:27.508Z,8.18
2023-01-12T03:25:57.442Z,8.18
2023-01-12T03:28:28.832Z,8.23
2023-01-12T03:31:05.420Z,8.28
2023-01-12T03:33:31.871Z,8.32
2023-01-12T03:36:24.598Z,8.36
2023-01-12T03:39:16.693Z,8.29
2023-01-12T03:41:53.038Z,8.26
2023-01-12T03:44:28.642Z,8.34
2023-01-12T03:47:01.532Z,8.34
2023-01-12T03:49:32.388Z,8.36
2023-01-12T03:52:01.891Z,8.32
2023-01-12T03:54:31.288Z,8.33
2023-01-12T03:56:59.050Z,8.40
2023-01-12T03:59:25.528Z,8.45
2023-01-12T04:01:52.182Z,8.37
2023-01-12T04:04:20.007Z,8.35
2023-01-12T04:06:46.343Z,8.43
2023-01-12T04:09:12.650Z,8.36
2023-01-12T04:11:57.449Z,8.36
2023-01-12T04:14:23.843Z,8.40
2023-01-12T04:16:50.148Z,8.37
2023-01-12T04:19:16.501Z,8.34
2023-01-12T04:22:02.260Z,8.39
2023-01-12T04:24:28.553Z,8.38
2023-01-12T04:26:54.973Z,8.40
2023-01-12T04:29:21.271Z,8.41
2023-01-12T04:31:47.681Z,8.45
2023-01-12T04:34:14.058Z,8.44
2023-01-12T04:36:42.733Z,8.40
2023-01-12T04:39:09.115Z,8.39
2023-01-12T04:41:35.531Z,8.39
2023-01-12T04:44:02.065Z,8.36
2023-01-12T04:46:28.384Z,8.37
2023-01-12T04:48:54.896Z,8.37
2023-01-12T04:51:21.246Z,8.44
2023-01-12T04:53:51.389Z,8.35
2023-01-12T04:56:17.930Z,8.48
2023-01-12T04:58:44.275Z,8.42
2023-01-12T05:01:19.171Z,8.51
2023-01-12T05:03:45.898Z,8.44
2023-01-12T05:06:12.279Z,8.38
2023-01-12T05:08:57.733Z,8.45
2023-01-12T05:11:28.664Z,8.42
2023-01-12T05:13:56.090Z,8.45
2023-01-12T05:16:22.893Z,8.38
2023-01-12T05:18:49.394Z,8.34
2023-01-12T05:21:18.008Z,8.35
2023-01-12T05:23:45.326Z,8.31
2023-01-12T05:26:12.368Z,8.37
2023-01-12T05:28:38.721Z,8.29
2023-01-12T05:31:10.927Z,8.36
2023-01-12T05:33:39.448Z,8.37
2023-01-12T05:36:07.925Z,8.31
2023-01-12T05:38:34.535Z,8.36
2023-01-12T05:41:01.945Z,8.36
2023-01-12T05:43:47.579Z,8.39
2023-01-12T05:46:14.414Z,8.35
2023-01-12T05:48:41.189Z,8.33
2023-01-12T05:51:12.361Z,8.29
2023-01-12T05:53:40.031Z,8.30
2023-01-12T05:56:09.717Z,8.31
2023-01-12T05:58:36.706Z,8.28
2023-01-12T06:01:07.865Z,8.29
2023-01-12T06:03:35.169Z,8.32
2023-01-12T06:06:01.581Z,8.30
2023-01-12T06:08:27.913Z,8.35
2023-01-12T06:10:54.207Z,8.35
2023-01-12T06:13:39.233Z,8.30
2023-01-12T06:16:09.040Z,8.34
2023-01-12T06:18:36.261Z,8.31
2023-01-12T06:21:04.065Z,8.29
2023-01-12T06:23:35.281Z,8.31
2023-01-12T06:26:09.070Z,8.32
2023-01-12T06:28:38.271Z,8.37
2023-01-12T06:31:08.677Z,8.32
2023-01-12T06:33:35.829Z,8.36
2023-01-12T06:36:03.386Z,8.32
2023-01-12T06:38:31.877Z,8.29
2023-01-12T06:41:02.448Z,8.34
2023-01-12T06:43:28.901Z,8.38
2023-01-12T06:45:55.242Z,8.42
2023-01-12T06:48:23.650Z,8.45
2023-01-12T06:50:49.946Z,8.50
2023-01-12T06:53:16.286Z,8.48
2023-01-12T06:55:48.636Z,8.45
2023-01-12T06:58:15.215Z,8.48
2023-01-12T07:00:41.547Z,8.49
2023-01-12T07:03:17.104Z,8.47
2023-01-12T07:05:43.596Z,8.48
2023-01-12T07:08:10.949Z,8.63
2023-01-12T07:10:37.425Z,8.56
2023-01-12T07:13:03.734Z,8.59
2023-01-12T07:15:30.060Z,8.52
2023-01-12T07:17:57.261Z,8.52
2023-01-12T07:20:24.821Z,8.54
2023-01-12T07:22:51.532Z,8.55
2023-01-12T07:25:17.830Z,8.55
2023-01-12T07:27:55.943Z,8.54
2023-01-12T07:30:23.452Z,8.51
2023-01-12T07:32:50.005Z,8.50
2023-01-12T07:35:17.493Z,8.56
2023-01-12T07:37:51.381Z,8.52
2023-01-12T07:40:18.083Z,8.40
2023-01-12T07:42:44.502Z,8.37
2023-01-12T07:45:11.538Z,8.40
2023-01-12T07:47:37.882Z,8.44
2023-01-12T07:50:04.717Z,8.40
2023-01-12T07:52:31.033Z,8.30
2023-01-12T07:54:58.144Z,8.34
2023-01-12T07:57:24.461Z,8.29
2023-01-12T07:59:50.755Z,8.17
2023-01-12T08:02:17.280Z,8.13
2023-01-12T08:04:44.313Z,8.07
2023-01-12T08:07:11.186Z,8.05
2023-01-12T08:09:37.657Z,7.95
2023-01-12T08:12:05.916Z,8.04
2023-01-12T08:14:39.164Z,8.04
2023-01-12T08:17:17.570Z,8.11
2023-01-12T08:19:50.732Z,8.08
2023-01-12T08:22:22.784Z,8.09
2023-01-12T08:25:00.960Z,8.09
2023-01-12T08:27:30.889Z,8.06
2023-01-12T08:30:02.534Z,8.12
2023-01-12T08:32:29.060Z,8.18
2023-01-12T08:35:01.768Z,8.27
2023-01-12T08:37:29.636Z,8.31
2023-01-12T08:39:56.359Z,8.31
2023-01-12T08:42:28.042Z,8.28
2023-01-12T08:44:55.646Z,8.32
2023-01-12T08:47:28.251Z,8.32
2023-01-12T08:49:55.303Z,8.39
2023-01-12T08:52:21.980Z,8.42
2023-01-12T08:54:49.567Z,8.48
2023-01-12T08:57:19.738Z,8.39
2023-01-12T08:59:46.256Z,8.44
2023-01-12T09:02:14.019Z,8.44
2023-01-12T09:04:41.362Z,8.39
2023-01-12T09:07:09.689Z,8.48
2023-01-12T09:09:36.178Z,8.45
2023-01-12T09:12:03.122Z,8.43
2023-01-12T09:14:29.701Z,8.42
2023-01-12T09:16:59.012Z,8.44
2023-01-12T09:19:25.383Z,8.43
2023-01-12T09:21:51.684Z,8.35
2023-01-12T09:24:18.065Z,8.39
2023-01-12T09:26:46.032Z,8.42
2023-01-12T09:29:14.037Z,8.47
2023-01-12T09:31:43.580Z,8.44
2023-01-12T09:34:10.395Z,8.48
2023-01-12T09:36:39.352Z,8.46
2023-01-12T09:39:09.894Z,8.45
2023-01-12T09:42:05.495Z,8.54
2023-01-12T09:44:59.651Z,8.50
2023-01-12T09:47:29.036Z,8.58
2023-01-12T09:50:10.921Z,8.65
2023-01-12T09:52:49.556Z,8.67
2023-01-12T09:55:21.781Z,8.65
2023-01-12T09:58:23.634Z,8.63
2023-01-12T10:00:51.926Z,8.65
2023-01-12T10:03:35.565Z,8.72
2023-01-12T10:06:02.357Z,8.71
2023-01-12T10:08:41.953Z,8.76
2023-01-12T10:11:25.606Z,8.82
2023-01-12T10:14:19.819Z,8.82
2023-01-12T10:16:59.870Z,8.84
2023-01-12T10:19:54.282Z,8.85
2023-01-12T10:22:37.919Z,8.86
2023-01-12T10:25:34.971Z,8.90
2023-01-12T10:28:16.972Z,8.91
2023-01-12T10:30:44.018Z,9.00
2023-01-12T10:33:19.353Z,8.98
2023-01-12T10:36:02.407Z,8.95
2023-01-12T10:38:35.988Z,8.98
2023-01-12T10:41:23.790Z,8.93
2023-01-12T10:43:56.083Z,8.95
2023-01-12T10:46:24.183Z,8.88
2023-01-12T10:48:55.506Z,8.94
2023-01-12T10:51:24.941Z,8.93
2023-01-12T10:53:56.746Z,8.96
2023-01-12T10:56:36.176Z,8.89
2023-01-12T10:59:07.042Z,8.87
2023-01-12T11:01:43.567Z,8.91
2023-01-12T11:04:14.417Z,8.87
2023-01-12T11:06:54.572Z,8.87
2023-01-12T11:09:26.655Z,8.91
2023-01-12T11:11:55.571Z,8.90
2023-01-12T11:14:28.850Z,9.01
2023-01-12T11:17:05.752Z,9.02
2023-01-12T11:19:39.457Z,9.03
2023-01-12T11:22:27.748Z,9.03
2023-01-12T11:25:21.080Z,9.06
2023-01-12T11:28:18.189Z,9.11
2023-01-12T11:30:56.810Z,9.07
2023-01-12T11:33:42.704Z,9.07
2023-01-12T11:36:15.660Z,9.03
2023-01-12T11:38:48.253Z,9.08
2023-01-12T11:41:34.107Z,9.11
2023-01-12T11:44:25.513Z,9.10
2023-01-12T11:46:59.431Z,9.13
2023-01-12T11:49:31.815Z,9.12
2023-01-12T11:51:59.257Z,9.13
2023-01-12T11:54:27.890Z,9.13
2023-01-12T11:57:19.092Z,9.15
2023-01-12T12:00:07.555Z,9.09
2023-01-12T12:02:41.033Z,9.15
2023-01-12T12:05:32.102Z,9.09
2023-01-12T12:08:12.610Z,9.12
2023-01-12T12:11:00.893Z,9.15
2023-01-12T12:14:02.375Z,9.14
2023-01-12T12:16:47.141Z,9.15
2023-01-12T12:19:51.395Z,9.15
2023-01-12T12:22:39.040Z,9.17
2023-01-12T12:25:30.042Z,9.22
2023-01-12T12:28:21.207Z,9.17
2023-01-12T12:31:06.758Z,9.22
2023-01-12T12:33:41.058Z,9.23
2023-01-12T12:36:31.819Z,9.27
2023-01-12T12:39:17.048Z,9.21
2023-01-12T12:42:15.785Z,9.20
2023-01-12T12:45:06.177Z,9.20
2023-01-12T12:47:43.851Z,9.19
2023-01-12T12:50:20.009Z,9.21
2023-01-12T12:52:51.909Z,9.23
2023-01-12T12:55:18.582Z,9.19
2023-01-12T12:58:02.311Z,9.18
2023-01-12T13:00:32.710Z,9.16
2023-01-12T13:02:59.841Z,9.19
2023-01-12T13:05:42.621Z,9.18
2023-01-12T13:08:18.477Z,9.24
2023-01-12T13:10:50.772Z,9.24
2023-01-12T13:13:32.781Z,9.22
2023-01-12T13:16:11.318Z,9.22
2023-01-12T13:19:06.250Z,9.29
2023-01-12T13:21:57.739Z,9.27
2023-01-12T13:24:40.951Z,9.31
2023-01-12T13:27:45.146Z,9.34
2023-01-12T13:30:26.873Z,9.32
2023-01-12T13:32:53.172Z,9.30
2023-01-12T13:35:46.437Z,9.33
2023-01-12T13:38:32.114Z,9.38
2023-01-12T13:41:07.735Z,9.44
2023-01-12T13:43:40.721Z,9.40
2023-01-12T13:46:17.170Z,9.39
2023-01-12T13:48:47.755Z,9.41
2023-01-12T13:51:23.681Z,9.47
2023-01-12T13:54:10.438Z,9.48
2023-01-12T13:56:37.239Z,9.47
2023-01-12T13:59:07.593Z,9.43
2023-01-12T14:01:38.205Z,9.54
2023-01-12T14:04:13.393Z,9.52
2023-01-12T14:06:51.813Z,9.51
2023-01-12T14:09:45.306Z,9.53
2023-01-12T14:12:23.428Z,9.52
2023-01-12T14:15:17.703Z,9.58
2023-01-12T14:17:49.870Z,9.57
2023-01-12T14:20:20.122Z,9.57
2023-01-12T14:22:46.624Z,9.57
2023-01-12T14:25:25.297Z,9.59
2023-01-12T14:27:53.902Z,9.54
2023-01-12T14:30:22.917Z,9.57
2023-01-12T14:32:50.738Z,9.57
2023-01-12T14:35:25.846Z,9.56
2023-01-12T14:37:58.347Z,9.51
2023-01-12T14:40:33.459Z,9.47
2023-01-12T14:43:20.861Z,9.48
2023-01-12T14:46:17.444Z,9.49
2023-01-12T14:48:58.358Z,9.53
2023-01-12T14:51:37.922Z,9.48
2023-01-12T14:54:07.252Z,9.50
2023-01-12T14:56:50.176Z,9.46
2023-01-12T14:59:22.782Z,9.52
2023-01-12T15:01:49.995Z,9.53
2023-01-12T15:04:20.443Z,9.49
2023-01-12T15:06:47.048Z,9.52
2023-01-12T15:09:29.473Z,9.43
2023-01-12T15:11:56.378Z,9.44
2023-01-12T15:14:26.927Z,9.43
2023-01-12T15:17:12.980Z,9.40
2023-01-12T15:19:58.793Z,9.39
2023-01-12T15:22:46.183Z,9.38
2023-01-12T15:25:36.171Z,9.38
2023-01-12T15:28:04.747Z,9.36
2023-01-12T15:30:33.669Z,9.37
2023-01-12T15:33:00.081Z,9.41
2023-01-12T15:35:29.785Z,9.35
2023-01-12T15:37:57.757Z,9.36
2023-01-12T15:40:25.492Z,9.32
2023-01-12T15:42:53.373Z,9.35
2023-01-12T15:45:25.975Z,9.31
2023-01-12T15:47:52.294Z,9.33
2023-01-12T15:50:18.757Z,9.29
2023-01-12T15:52:45.128Z,9.29
2023-01-12T15:55:19.523Z,9.29
2023-01-12T15:57:47.321Z,9.25
2023-01-12T16:00:15.825Z,9.33
2023-01-12T16:02:45.269Z,9.36
2023-01-12T16:05:13.232Z,9.30
2023-01-12T16:07:39.581Z,9.30
2023-01-12T16:10:06.555Z,9.29
2023-01-12T16:12:32.878Z,9.26
2023-01-12T16:14:59.780Z,9.24
2023-01-12T16:17:26.477Z,9.22
2023-01-12T16:19:52.989Z,9.22
2023-01-12T16:22:21.844Z,9.22
2023-01-12T16:24:49.216Z,9.27
2023-01-12T16:27:16.090Z,9.28
2023-01-12T16:29:42.545Z,9.22
2023-01-12T16:32:09.409Z,9.16
2023-01-12T16:34:36.321Z,9.22
2023-01-12T16:37:03.361Z,9.17
2023-01-12T16:39:30.364Z,9.19
2023-01-12T16:42:05.962Z,9.24
2023-01-12T16:44:37.109Z,9.23
2023-01-12T16:47:14.537Z,9.22
2023-01-12T16:49:41.701Z,9.17
2023-01-12T16:52:10.947Z,9.11
2023-01-12T16:54:42.279Z,9.15
2023-01-12T16:57:10.093Z,9.11
2023-01-12T16:59:36.517Z,9.18
2023-01-12T17:02:07.715Z,9.19
2023-01-12T17:04:35.671Z,9.16
2023-01-12T17:07:02.692Z,9.18
2023-01-12T17:09:29.132Z,9.23
2023-01-12T17:11:55.818Z,9.19
2023-01-12T17:14:25.435Z,9.20
2023-01-12T17:16:56.097Z,9.24
2023-01-12T17:19:24.684Z,9.24
2023-01-12T17:21:51.761Z,9.24
2023-01-12T17:24:19.626Z,9.22
2023-01-12T17:26:49.557Z,9.26
2023-01-12T17:29:16.017Z,9.25
2023-01-12T17:31:42.796Z,9.22
2023-01-12T17:34:12.015Z,9.27
2023-01-12T17:36:38.982Z,9.26
2023-01-12T17:39:05.611Z,9.27
2023-01-12T17:41:50.692Z,9.28
2023-01-12T17:44:17.355Z,9.27
2023-01-12T17:46:44.623Z,9.22
2023-01-12T17:49:11.904Z,9.32
2023-01-12T17:51:39.957Z,9.27
2023-01-12T17:54:10.450Z,9.26
2023-01-12T17:56:38.042Z,9.30
2023-01-12T17:59:05.956Z,9.27
2023-01-12T18:01:35.260Z,9.28
2023-01-12T18:04:02.353Z,9.27
2023-01-12T18:06:28.793Z,9.25
2023-01-12T18:08:56.679Z,9.28
2023-01-12T18:11:23.565Z,9.31
2023-01-12T18:13:49.886Z,9.36
2023-01-12T18:16:17.134Z,9.29
2023-01-12T18:18:44.014Z,9.30
2023-01-12T18:21:13.242Z,9.26
2023-01-12T18:23:39.775Z,9.32
2023-01-12T18:26:12.170Z,9.33
2023-01-12T18:28:38.562Z,9.33
2023-01-12T18:31:26.748Z,9.32
2023-01-12T18:34:00.789Z,9.28
2023-01-12T18:36:27.145Z,9.32
2023-01-12T18:38:53.968Z,9.28
2023-01-12T18:41:40.424Z,9.28
2023-01-12T18:44:06.848Z,9.33
2023-01-12T18:46:53.453Z,9.30
2023-01-12T18:49:24.652Z,9.36
2023-01-12T18:52:10.244Z,9.32
2023-01-12T18:54:47.439Z,9.40
2023-01-12T18:57:19.824Z,9.47
2023-01-12T18:59:47.681Z,9.45
2023-01-12T19:02:15.397Z,9.41
2023-01-12T19:04:51.075Z,9.41
2023-01-12T19:07:28.328Z,9.43
2023-01-12T19:09:55.096Z,9.41
2023-01-12T19:12:21.713Z,9.42
2023-01-12T19:15:06.663Z,9.43
2023-01-12T19:17:33.627Z,9.41
2023-01-12T19:20:03.154Z,9.43
2023-01-12T19:22:48.370Z,9.36
2023-01-12T19:25:36.819Z,9.39
2023-01-12T19:28:22.909Z,9.39
2023-01-12T19:30:49.163Z,9.38
2023-01-12T19:33:16.815Z,9.35
2023-01-12T19:35:45.186Z,9.32
2023-01-12T19:38:13.258Z,9.33
2023-01-12T19:40:57.290Z,9.31
2023-01-12T19:43:26.993Z,9.33
2023-01-12T19:45:57.587Z,9.36
2023-01-12T19:48:25.783Z,9.24
2023-01-12T19:50:53.328Z,9.26
2023-01-12T19:53:25.710Z,9.29
2023-01-12T19:55:52.715Z,9.29
2023-01-12T19:58:21.879Z,9.28
2023-01-12T20:00:49.376Z,9.33
2023-01-12T20:03:18.902Z,9.33
2023-01-12T20:05:47.476Z,9.32
2023-01-12T20:08:14.993Z,9.32
2023-01-12T20:10:41.575Z,9.33
2023-01-12T20:13:08.849Z,9.37
2023-01-12T20:15:37.926Z,9.43
2023-01-12T20:18:04.280Z,9.46
2023-01-12T20:20:31.307Z,9.46
2023-01-12T20:22:58.116Z,9.42
2023-01-12T20:25:27.937Z,9.45
2023-01-12T20:27:54.958Z,9.42
2023-01-12T20:30:36.889Z,9.48
2023-01-12T20:33:06.432Z,9.43
2023-01-12T20:35:34.794Z,9.41
2023-01-12T20:38:03.653Z,9.46
2023-01-12T20:40:29.991Z,9.55
2023-01-12T20:42:56.349Z,9.51
2023-01-12T20:45:22.750Z,9.51
2023-01-12T20:47:49.088Z,9.48
2023-01-12T20:50:17.825Z,9.45
2023-01-12T20:52:44.206Z,9.48
2023-01-12T20:55:10.497Z,9.54
2023-01-12T20:57:40.666Z,9.52
2023-01-12T21:00:08.001Z,9.53
2023-01-12T21:02:35.774Z,9.53
2023-01-12T21:05:02.417Z,9.44
2023-01-12T21:07:28.782Z,9.47
2023-01-12T21:09:55.093Z,9.50
2023-01-12T21:12:21.463Z,9.50
2023-01-12T21:14:47.805Z,9.49
2023-01-12T21:17:16.538Z,9.50
2023-01-12T21:19:42.812Z,9.43
2023-01-12T21:22:09.155Z,9.37
2023-01-12T21:24:35.514Z,9.34
2023-01-12T21:27:01.842Z,9.38
2023-01-12T21:29:28.169Z,9.35
2023-01-12T21:31:54.567Z,9.32
2023-01-12T21:34:20.979Z,9.31
2023-01-12T21:36:47.394Z,9.30
2023-01-12T21:39:13.739Z,9.32
2023-01-12T21:41:58.474Z,9.29
2023-01-12T21:44:24.784Z,9.27
2023-01-12T21:46:51.081Z,9.27
2023-01-12T21:49:17.448Z,9.25
2023-01-12T21:51:43.732Z,9.25
2023-01-12T21:54:10.039Z,9.26
2023-01-12T21:56:36.475Z,9.24
2023-01-12T21:59:02.810Z,9.22
2023-01-12T22:01:29.281Z,9.19
2023-01-12T22:03:57.128Z,9.17
2023-01-12T22:06:23.591Z,9.17
2023-01-12T22:08:50.005Z,9.11
2023-01-12T22:11:16.851Z,9.07
2023-01-12T22:13:43.653Z,9.06
2023-01-12T22:16:12.686Z,9.10
2023-01-12T22:18:42.874Z,9.01
2023-01-12T22:21:09.885Z,9.03
2023-01-12T22:23:37.467Z,9.05
2023-01-12T22:26:06.379Z,9.06
2023-01-12T22:28:34.225Z,9.07
2023-01-12T22:31:27.128Z,9.11
2023-01-12T22:34:03.694Z,9.03
2023-01-12T22:36:34.635Z,9.09
2023-01-12T22:39:01.273Z,9.02
2023-01-12T22:41:27.551Z,9.04
2023-01-12T22:43:54.603Z,9.04
2023-01-12T22:46:26.502Z,9.13
2023-01-12T22:48:57.593Z,9.09
2023-01-12T22:51:25.570Z,9.13
2023-01-12T22:53:52.836Z,9.19
2023-01-12T22:56:19.980Z,9.12
2023-01-12T22:58:47.653Z,9.18
2023-01-12T23:01:14.924Z,9.16
2023-01-12T23:03:41.701Z,9.24
2023-01-12T23:06:12.051Z,9.27
2023-01-12T23:08:38.623Z,9.20
2023-01-12T23:11:11.513Z,9.20
2023-01-12T23:13:38.084Z,9.16
2023-01-12T23:16:06.893Z,9.15
2023-01-12T23:18:34.786Z,9.16
2023-01-12T23:21:09.685Z,9.12
2023-01-12T23:23:36.372Z,9.10
2023-01-12T23:26:04.258Z,9.18
2023-01-12T23:28:30.720Z,9.19
2023-01-12T23:31:04.576Z,9.14
2023-01-12T23:33:31.102Z,9.15
2023-01-12T23:36:02.052Z,9.13
2023-01-12T23:38:28.367Z,9.09
2023-01-12T23:40:54.619Z,9.10
2023-01-12T23:43:20.953Z,9.11
2023-01-12T23:45:47.292Z,9.05
2023-01-12T23:48:13.605Z,9.07
2023-01-12T23:50:39.917Z,9.04
2023-01-12T23:53:06.269Z,9.04
2023-01-12T23:55:32.557Z,9.07
2023-01-12T23:57:58.863Z,9.00
